createdAt,value
2019-01-11T00:00:21.399Z,-3.10
2019-01-11T00:02:50.758Z,-3.10
2019-01-11T00:05:18.215Z,-3.10
2019-01-11T00:07:45.692Z,-3.10
2019-01-11T00:10:13.280Z,-3.10
2019-01-11T00:12:40.783Z,-3.10
2019-01-11T00:15:08.458Z,-3.10
2019-01-11T00:17:35.990Z,-3.10
2019-01-11T00:20:05.245Z,-3.10
2019-01-11T00:22:32.738Z,-3.10
2019-01-11T00:25:00.204Z,-3.10
2019-01-11T00:27:27.855Z,-3.10
2019-01-11T00:29:55.494Z,-3.10
2019-01-11T00:32:22.916Z,-3.20
2019-01-11T00:34:55.529Z,-3.10
2019-01-11T00:37:23.187Z,-3.10
2019-01-11T00:39:52.716Z,-3.10
2019-01-11T00:42:20.254Z,-3.10
2019-01-11T00:44:47.746Z,-3.10
2019-01-11T00:47:15.578Z,-3.10
2019-01-11T00:49:43.097Z,-3.20
2019-01-11T00:52:10.749Z,-3.20
2019-01-11T00:54:38.327Z,-3.20
2019-01-11T00:57:05.966Z,-3.20
2019-01-11T00:59:33.479Z,-3.20
2019-01-11T01:02:01.131Z,-3.20
2019-01-11T01:04:28.609Z,-3.10
2019-01-11T01:06:56.106Z,-3.20
2019-01-11T01:09:23.619Z,-3.20
2019-01-11T01:11:51.364Z,-3.20
2019-01-11T01:14:18.967Z,-3.20
2019-01-11T01:16:46.472Z,-3.20
2019-01-11T01:19:19.893Z,-3.20
2019-01-11T01:24:40.322Z,-3.20
2019-01-11T01:27:07.882Z,-3.20
2019-01-11T01:29:35.443Z,-3.20
2019-01-11T01:32:03.205Z,-3.20
2019-01-11T01:34:30.690Z,-3.20
2019-01-11T01:36:58.289Z,-3.30
2019-01-11T01:39:25.877Z,-3.20
2019-01-11T01:41:53.412Z,-3.30
2019-01-11T01:44:21.091Z,-3.30
2019-01-11T01:46:48.933Z,-3.30
2019-01-11T01:49:16.316Z,-3.30
2019-01-11T01:51:43.967Z,-3.20
2019-01-11T01:54:13.077Z,-3.30
2019-01-11T01:56:41.445Z,-3.20
2019-01-11T01:59:08.977Z,-3.30
2019-01-11T02:01:36.550Z,-3.30
2019-01-11T02:04:04.351Z,-3.20
2019-01-11T02:06:31.950Z,-3.30
2019-01-11T02:08:59.611Z,-3.30
2019-01-11T02:11:27.324Z,-3.30
2019-01-11T02:13:54.700Z,-3.30
2019-01-11T02:16:25.099Z,-3.30
2019-01-11T02:18:52.706Z,-3.30
2019-01-11T02:21:20.414Z,-3.30
2019-01-11T02:23:50.137Z,-3.30
2019-01-11T02:26:17.659Z,-3.30
2019-01-11T02:28:45.248Z,-3.30
2019-01-11T02:31:12.784Z,-3.30
2019-01-11T02:33:40.173Z,-3.40
2019-01-11T02:36:07.832Z,-3.40
2019-01-11T02:38:35.384Z,-3.40
2019-01-11T02:41:03.150Z,-3.40
2019-01-11T02:43:30.645Z,-3.40
2019-01-11T02:45:58.160Z,-3.40
2019-01-11T02:48:25.851Z,-3.40
2019-01-11T02:50:53.282Z,-3.40
2019-01-11T02:53:20.704Z,-3.40
2019-01-11T02:55:48.302Z,-3.40
2019-01-11T02:58:15.787Z,-3.50
2019-01-11T03:00:43.412Z,-3.40
2019-01-11T03:03:11.794Z,-3.40
2019-01-11T03:05:39.416Z,-3.40
2019-01-11T03:08:06.862Z,-3.40
2019-01-11T03:10:35.090Z,-3.40
2019-01-11T03:13:02.858Z,-3.40
2019-01-11T03:15:31.337Z,-3.40
2019-01-11T03:17:58.913Z,-3.40
2019-01-11T03:20:26.549Z,-3.40
2019-01-11T03:22:54.043Z,-3.40
2019-01-11T03:25:21.575Z,-3.40
2019-01-11T03:27:51.063Z,-3.40
2019-01-11T03:30:19.720Z,-3.40
2019-01-11T03:32:47.502Z,-3.40
2019-01-11T03:35:16.193Z,-3.40
2019-01-11T03:37:47.005Z,-3.40
2019-01-11T03:40:16.027Z,-3.50
2019-01-11T03:42:43.611Z,-3.50
2019-01-11T03:45:14.591Z,-3.50
2019-01-11T03:47:42.362Z,-3.50
2019-01-11T03:50:10.497Z,-3.50
2019-01-11T03:52:38.236Z,-3.50
2019-01-11T03:55:08.355Z,-3.50
2019-01-11T03:57:36.167Z,-3.60
2019-01-11T04:00:10.595Z,-3.60
2019-01-11T04:02:38.212Z,-3.60
2019-01-11T04:05:06.475Z,-3.60
2019-01-11T04:07:34.128Z,-3.50
2019-01-11T04:10:01.599Z,-3.50
2019-01-11T04:12:28.984Z,-3.50
2019-01-11T04:14:56.614Z,-3.50
2019-01-11T04:17:24.094Z,-3.60
2019-01-11T04:19:51.689Z,-3.60
2019-01-11T04:22:25.748Z,-3.50
2019-01-11T04:25:12.754Z,-3.50
2019-01-11T04:27:40.840Z,-3.50
2019-01-11T04:30:14.416Z,-3.50
2019-01-11T04:32:41.848Z,-3.50
2019-01-11T04:35:09.741Z,-3.50
2019-01-11T04:37:37.435Z,-3.50
2019-01-11T04:40:05.678Z,-3.50
2019-01-11T04:42:33.031Z,-3.40
2019-01-11T04:45:00.482Z,-3.50
2019-01-11T04:47:27.835Z,-3.50
2019-01-11T04:49:55.317Z,-3.50
2019-01-11T04:52:22.736Z,-3.50
2019-01-11T04:54:50.215Z,-3.50
2019-01-11T04:57:17.566Z,-3.50
2019-01-11T04:59:45.152Z,-3.50
2019-01-11T05:02:12.861Z,-3.50
2019-01-11T05:04:40.481Z,-3.60
2019-01-11T05:07:07.920Z,-3.60
2019-01-11T05:09:35.372Z,-3.60
2019-01-11T05:12:03.021Z,-3.60
2019-01-11T05:14:30.574Z,-3.70
2019-01-11T05:16:58.104Z,-3.60
2019-01-11T05:19:25.964Z,-3.60
2019-01-11T05:21:53.358Z,-3.60
2019-01-11T05:24:24.582Z,-3.50
2019-01-11T05:26:52.655Z,-3.50
2019-01-11T05:29:20.025Z,-3.60
2019-01-11T05:31:47.493Z,-3.60
2019-01-11T05:34:14.845Z,-3.50
2019-01-11T05:36:42.378Z,-3.60
2019-01-11T05:39:10.001Z,-3.50
2019-01-11T05:41:37.394Z,-3.50
2019-01-11T05:44:05.300Z,-3.60
2019-01-11T05:46:32.739Z,-3.50
2019-01-11T05:49:00.381Z,-3.50
2019-01-11T05:51:27.742Z,-3.50
2019-01-11T05:53:55.208Z,-3.50
2019-01-11T05:56:22.862Z,-3.50
2019-01-11T05:58:56.524Z,-3.50
2019-01-11T06:01:23.991Z,-3.50
2019-01-11T06:03:51.584Z,-3.50
2019-01-11T06:06:18.890Z,-3.50
2019-01-11T06:08:46.233Z,-3.50
2019-01-11T06:11:13.627Z,-3.50
2019-01-11T06:13:41.106Z,-3.50
2019-01-11T06:16:08.845Z,-3.50
2019-01-11T06:18:36.365Z,-3.50
2019-01-11T06:21:04.051Z,-3.40
2019-01-11T06:23:31.570Z,-3.50
2019-01-11T06:26:02.015Z,-3.50
2019-01-11T06:28:29.347Z,-3.50
2019-01-11T06:30:56.951Z,-3.50
2019-01-11T06:33:25.299Z,-3.50
2019-01-11T06:35:52.772Z,-3.50
2019-01-11T06:38:20.599Z,-3.50
2019-01-11T06:40:48.145Z,-3.50
2019-01-11T06:43:15.579Z,-3.50
2019-01-11T06:45:43.950Z,-3.50
2019-01-11T06:48:26.341Z,-3.50
2019-01-11T06:50:53.720Z,-3.50
2019-01-11T06:53:21.582Z,-3.50
2019-01-11T06:55:48.951Z,-3.40
2019-01-11T06:58:17.051Z,-3.50
2019-01-11T07:00:44.451Z,-3.50
2019-01-11T07:03:11.926Z,-3.50
2019-01-11T07:05:42.068Z,-3.50
2019-01-11T07:08:09.864Z,-3.50
2019-01-11T07:10:38.871Z,-3.50
2019-01-11T07:13:06.750Z,-3.40
2019-01-11T07:15:35.242Z,-3.40
2019-01-11T07:18:03.009Z,-3.40
2019-01-11T07:20:32.361Z,-3.40
2019-01-11T07:23:00.010Z,-3.40
2019-01-11T07:25:27.454Z,-3.40
2019-01-11T07:28:00.320Z,-3.40
2019-01-11T07:30:37.035Z,-3.30
2019-01-11T07:33:06.435Z,-3.30
2019-01-11T07:35:53.640Z,-3.30
2019-01-11T07:38:22.000Z,-3.30
2019-01-11T07:40:49.486Z,-3.30
2019-01-11T07:43:16.872Z,-3.30
2019-01-11T07:45:44.865Z,-3.20
2019-01-11T07:48:15.875Z,-3.20
2019-01-11T07:50:49.284Z,-3.10
2019-01-11T07:53:14.651Z,-3.10
2019-01-11T07:55:42.168Z,-3.10
2019-01-11T07:58:09.550Z,-3.00
2019-01-11T08:00:36.991Z,-3.00
2019-01-11T08:03:04.608Z,-2.90
2019-01-11T08:05:32.023Z,-2.90
2019-01-11T08:07:59.697Z,-2.90
2019-01-11T08:10:27.336Z,-2.80
2019-01-11T08:12:54.845Z,-2.80
2019-01-11T08:15:23.887Z,-2.70
2019-01-11T08:17:51.641Z,-2.70
2019-01-11T08:20:20.726Z,-2.70
2019-01-11T08:22:48.514Z,-2.60
2019-01-11T08:25:16.497Z,-2.60
2019-01-11T08:27:44.464Z,-2.50
2019-01-11T08:30:13.519Z,-2.50
2019-01-11T08:32:41.110Z,-2.40
2019-01-11T08:35:09.567Z,-2.40
2019-01-11T08:37:37.052Z,-2.30
2019-01-11T08:40:05.981Z,-2.30
2019-01-11T08:42:33.786Z,-2.30
2019-01-11T08:45:01.473Z,-2.20
2019-01-11T08:47:29.050Z,-2.20
2019-01-11T08:49:56.555Z,-2.10
2019-01-11T08:52:23.986Z,-2.00
2019-01-11T08:54:51.524Z,-1.90
2019-01-11T08:57:19.031Z,-1.90
2019-01-11T08:59:46.369Z,-1.90
2019-01-11T09:02:13.821Z,-1.90
2019-01-11T09:04:41.972Z,-1.90
2019-01-11T09:07:09.885Z,-1.90
2019-01-11T09:09:37.373Z,-1.80
2019-01-11T09:12:04.927Z,-1.80
2019-01-11T09:14:48.171Z,-1.70
2019-01-11T09:17:16.928Z,-1.70
2019-01-11T09:19:44.456Z,-1.50
2019-01-11T09:22:12.062Z,-1.50
2019-01-11T09:24:40.529Z,-1.40
2019-01-11T09:27:08.031Z,-1.40
2019-01-11T09:29:35.417Z,-1.30
2019-01-11T09:32:03.214Z,-1.10
2019-01-11T09:34:30.547Z,-0.90
2019-01-11T09:36:58.074Z,-0.80
2019-01-11T09:39:26.758Z,-0.70
2019-01-11T09:41:54.101Z,-0.70
2019-01-11T09:44:21.596Z,-0.60
2019-01-11T09:46:49.220Z,-0.40
2019-01-11T09:49:16.643Z,-0.30
2019-01-11T09:51:45.488Z,-0.30
2019-01-11T09:54:13.062Z,-0.30
2019-01-11T09:56:40.711Z,-0.20
2019-01-11T09:59:08.090Z,-0.10
2019-01-11T10:01:35.442Z,0.00
2019-01-11T10:04:03.137Z,0.10
2019-01-11T10:06:32.553Z,0.30
2019-01-11T10:08:59.909Z,0.80
2019-01-11T10:11:27.452Z,1.20
2019-01-11T10:13:54.893Z,1.30
2019-01-11T10:16:23.789Z,1.90
2019-01-11T10:18:51.204Z,2.10
2019-01-11T10:21:22.135Z,2.10
2019-01-11T10:23:47.953Z,1.90
2019-01-11T10:26:15.487Z,1.60
2019-01-11T10:28:42.853Z,1.30
2019-01-11T10:31:10.442Z,1.10
2019-01-11T10:33:37.758Z,1.20
2019-01-11T10:36:05.605Z,1.20
2019-01-11T10:38:33.008Z,1.10
2019-01-11T10:41:05.424Z,1.10
2019-01-11T10:43:33.051Z,1.20
2019-01-11T10:46:02.284Z,1.30
2019-01-11T10:48:29.740Z,1.30
2019-01-11T10:50:57.370Z,1.30
2019-01-11T10:53:24.972Z,1.30
2019-01-11T10:55:52.800Z,1.30
2019-01-11T10:58:20.350Z,1.20
2019-01-11T11:00:48.042Z,1.10
2019-01-11T11:03:15.395Z,1.00
2019-01-11T11:05:42.919Z,1.00
2019-01-11T11:08:10.651Z,1.00
2019-01-11T11:10:38.079Z,1.10
2019-01-11T11:13:05.660Z,1.00
2019-01-11T11:15:33.119Z,1.00
2019-01-11T11:18:00.648Z,1.00
2019-01-11T11:20:28.002Z,1.00
2019-01-11T11:22:55.473Z,1.00
2019-01-11T11:25:22.984Z,1.10
2019-01-11T11:27:50.318Z,1.30
2019-01-11T11:30:19.748Z,1.40
2019-01-11T11:32:57.742Z,1.40
2019-01-11T11:35:26.977Z,1.40
2019-01-11T11:37:54.759Z,1.40
2019-01-11T11:40:22.663Z,1.20
2019-01-11T11:42:50.045Z,1.10
2019-01-11T11:45:17.614Z,1.00
2019-01-11T11:47:47.180Z,1.00
2019-01-11T11:50:14.783Z,1.20
2019-01-11T11:52:42.333Z,1.30
2019-01-11T11:55:10.076Z,1.30
2019-01-11T11:57:38.588Z,1.00
2019-01-11T12:00:11.032Z,1.20
2019-01-11T12:02:38.628Z,1.10
2019-01-11T12:05:06.430Z,1.00
2019-01-11T12:07:33.800Z,0.80
2019-01-11T12:10:01.569Z,0.70
2019-01-11T12:12:28.919Z,0.70
2019-01-11T12:14:58.382Z,0.80
2019-01-11T12:17:26.015Z,0.90
2019-01-11T12:19:57.041Z,1.10
2019-01-11T12:22:22.747Z,1.30
2019-01-11T12:24:50.151Z,2.10
2019-01-11T12:27:18.495Z,3.50
2019-01-11T12:29:45.886Z,3.70
2019-01-11T12:32:19.424Z,3.40
2019-01-11T12:34:42.684Z,2.80
2019-01-11T12:37:10.023Z,2.40
2019-01-11T12:39:37.349Z,2.20
2019-01-11T12:42:04.900Z,1.90
2019-01-11T12:44:32.243Z,1.30
2019-01-11T12:46:59.572Z,1.40
2019-01-11T12:49:28.702Z,1.20
2019-01-11T12:51:56.228Z,1.20
2019-01-11T12:54:23.843Z,1.10
2019-01-11T12:56:51.238Z,0.90
2019-01-11T12:59:18.557Z,0.80
2019-01-11T13:01:46.239Z,0.70
2019-01-11T13:04:13.718Z,0.70
2019-01-11T13:06:41.173Z,0.70
2019-01-11T13:09:08.651Z,0.70
2019-01-11T13:11:36.199Z,0.70
2019-01-11T13:14:03.888Z,0.80
2019-01-11T13:16:31.277Z,0.70
2019-01-11T13:18:58.819Z,0.60
2019-01-11T13:21:26.303Z,0.50
2019-01-11T13:23:53.639Z,0.50
2019-01-11T13:26:21.117Z,0.60
2019-01-11T13:28:48.655Z,0.50
2019-01-11T13:31:21.632Z,0.40
2019-01-11T13:33:49.071Z,0.40
2019-01-11T13:36:18.896Z,0.40
2019-01-11T13:38:46.640Z,0.30
2019-01-11T13:41:15.134Z,0.20
2019-01-11T13:43:42.576Z,0.10
2019-01-11T13:46:10.030Z,0.00
2019-01-11T13:48:37.603Z,0.00
2019-01-11T13:51:05.193Z,-0.10
2019-01-11T13:53:35.345Z,-0.10
2019-01-11T13:56:02.920Z,-0.10
2019-01-11T13:58:30.494Z,-0.20
2019-01-11T14:00:57.976Z,-0.20
2019-01-11T14:03:25.347Z,-0.10
2019-01-11T14:05:53.110Z,-0.10
2019-01-11T14:08:20.595Z,-0.10
2019-01-11T14:10:48.075Z,-0.20
2019-01-11T14:13:15.958Z,-0.10
2019-01-11T14:15:54.824Z,-0.20
2019-01-11T14:18:23.145Z,-0.30
2019-01-11T14:20:51.743Z,-0.30
2019-01-11T14:23:19.934Z,-0.40
2019-01-11T14:25:47.543Z,-0.40
2019-01-11T14:28:15.180Z,-0.40
2019-01-11T14:30:43.065Z,-0.40
2019-01-11T14:33:10.789Z,-0.50
2019-01-11T14:35:39.641Z,-0.40
2019-01-11T14:38:07.332Z,-0.50
2019-01-11T14:40:35.078Z,-0.40
2019-01-11T14:43:04.250Z,-0.30
2019-01-11T14:45:31.721Z,-0.20
2019-01-11T14:47:59.147Z,-0.20
2019-01-11T14:50:26.818Z,-0.20
2019-01-11T14:52:54.918Z,-0.30
2019-01-11T14:55:22.366Z,-0.30
2019-01-11T14:57:49.895Z,-0.40
2019-01-11T15:00:22.370Z,-0.50
2019-01-11T15:02:50.181Z,-0.50
2019-01-11T15:05:18.397Z,-0.60
2019-01-11T15:07:46.312Z,-0.70
2019-01-11T15:10:14.247Z,-0.80
2019-01-11T15:12:44.687Z,-1.00
2019-01-11T15:15:20.848Z,-1.00
2019-01-11T15:17:49.170Z,-1.20
2019-01-11T15:20:33.291Z,-1.30
2019-01-11T15:23:13.589Z,-1.50
2019-01-11T15:25:44.186Z,-1.80
2019-01-11T15:28:11.812Z,-2.00
2019-01-11T15:30:39.489Z,-2.20
2019-01-11T15:33:07.655Z,-2.40
2019-01-11T15:35:35.770Z,-2.60
2019-01-11T15:38:03.777Z,-2.70
2019-01-11T15:40:36.918Z,-2.90
2019-01-11T15:43:04.089Z,-3.10
2019-01-11T15:45:31.677Z,-3.20
2019-01-11T15:47:59.057Z,-3.40
2019-01-11T15:50:54.574Z,-3.50
2019-01-11T15:53:23.073Z,-3.70
2019-01-11T15:55:55.234Z,-3.80
2019-01-11T15:58:29.070Z,-4.00
2019-01-11T16:00:56.685Z,-4.10
2019-01-11T16:03:25.036Z,-4.20
2019-01-11T16:06:40.594Z,-4.30
2019-01-11T16:09:59.786Z,-4.40
2019-01-11T16:12:53.334Z,-4.50
2019-01-11T16:16:04.109Z,-4.70
2019-01-11T16:18:32.353Z,-4.80
2019-01-11T16:21:00.300Z,-4.90
2019-01-11T16:23:28.042Z,-5.00
2019-01-11T16:25:55.710Z,-5.00
2019-01-11T16:28:23.582Z,-5.10
2019-01-11T16:30:51.053Z,-5.20
2019-01-11T16:33:18.582Z,-5.20
2019-01-11T16:35:45.975Z,-5.20
2019-01-11T16:38:14.411Z,-5.30
2019-01-11T16:40:41.945Z,-5.30
2019-01-11T16:43:09.539Z,-5.30
2019-01-11T16:45:37.090Z,-5.20
2019-01-11T16:48:04.562Z,-5.20
2019-01-11T16:50:33.065Z,-5.10
2019-01-11T16:53:01.330Z,-5.00
2019-01-11T16:55:28.873Z,-5.00
2019-01-11T16:57:56.874Z,-4.90
2019-01-11T17:00:24.979Z,-4.80
2019-01-11T17:02:52.422Z,-4.70
2019-01-11T17:05:19.876Z,-4.60
2019-01-11T17:07:47.380Z,-4.60
2019-01-11T17:10:14.965Z,-4.60
2019-01-11T17:12:42.787Z,-4.50
2019-01-11T17:15:14.565Z,-4.50
2019-01-11T17:17:42.753Z,-4.50
2019-01-11T17:20:14.477Z,-4.50
2019-01-11T17:22:42.437Z,-4.60
2019-01-11T17:25:10.130Z,-4.60
2019-01-11T17:27:38.255Z,-4.60
2019-01-11T17:30:11.629Z,-4.60
2019-01-11T17:32:39.653Z,-4.60
2019-01-11T17:35:07.457Z,-4.60
2019-01-11T17:37:34.903Z,-4.50
2019-01-11T17:40:04.148Z,-4.50
2019-01-11T17:42:31.667Z,-4.50
2019-01-11T17:44:59.054Z,-4.50
2019-01-11T17:47:26.667Z,-4.50
2019-01-11T17:50:00.943Z,-4.50
2019-01-11T17:52:23.539Z,-4.50
2019-01-11T17:54:53.768Z,-4.60
2019-01-11T17:57:21.426Z,-4.60
2019-01-11T17:59:49.170Z,-4.70
2019-01-11T18:02:17.104Z,-4.80
2019-01-11T18:04:44.640Z,-4.80
2019-01-11T18:07:12.520Z,-4.90
2019-01-11T18:09:40.497Z,-4.90
2019-01-11T18:12:20.077Z,-4.90
2019-01-11T18:14:47.312Z,-4.90
2019-01-11T18:17:14.881Z,-4.90
2019-01-11T18:19:42.528Z,-4.80
2019-01-11T18:22:10.343Z,-4.80
2019-01-11T18:24:38.397Z,-4.80
2019-01-11T18:27:06.490Z,-4.70
2019-01-11T18:29:33.860Z,-4.70
2019-01-11T18:32:03.001Z,-4.60
2019-01-11T18:34:31.308Z,-4.60
2019-01-11T18:36:58.889Z,-4.50
2019-01-11T18:39:26.550Z,-4.40
2019-01-11T18:41:54.108Z,-4.30
2019-01-11T18:44:21.749Z,-4.20
2019-01-11T18:46:49.159Z,-4.10
2019-01-11T18:49:16.720Z,-4.10
2019-01-11T18:51:44.245Z,-4.10
2019-01-11T18:54:11.902Z,-4.10
2019-01-11T18:56:39.559Z,-4.00
2019-01-11T18:59:07.021Z,-3.90
2019-01-11T19:01:34.403Z,-3.90
2019-01-11T19:04:02.115Z,-3.80
2019-01-11T19:06:29.474Z,-3.70
2019-01-11T19:08:56.846Z,-3.70
2019-01-11T19:11:24.513Z,-3.70
2019-01-11T19:13:52.054Z,-3.60
2019-01-11T19:16:19.907Z,-3.60
2019-01-11T19:18:47.535Z,-3.60
2019-01-11T19:21:17.088Z,-3.50
2019-01-11T19:23:44.633Z,-3.40
2019-01-11T19:26:12.464Z,-3.40
2019-01-11T19:28:40.340Z,-3.40
2019-01-11T19:31:07.969Z,-3.30
2019-01-11T19:33:35.860Z,-3.30
2019-01-11T19:36:05.028Z,-3.30
2019-01-11T19:38:33.559Z,-3.30
2019-01-11T19:41:01.326Z,-3.30
2019-01-11T19:43:28.674Z,-3.20
2019-01-11T19:45:56.419Z,-3.20
2019-01-11T19:48:24.176Z,-3.10
2019-01-11T19:50:51.657Z,-3.10
2019-01-11T19:53:19.126Z,-3.10
2019-01-11T19:55:46.808Z,-3.00
2019-01-11T19:58:14.478Z,-2.90
2019-01-11T20:00:42.082Z,-2.90
2019-01-11T20:03:09.807Z,-2.90
2019-01-11T20:05:37.405Z,-2.80
2019-01-11T20:08:05.029Z,-2.80
2019-01-11T20:10:33.388Z,-2.80
2019-01-11T20:13:01.384Z,-2.70
2019-01-11T20:15:29.543Z,-2.70
2019-01-11T20:17:57.357Z,-2.60
2019-01-11T20:20:25.482Z,-2.60
2019-01-11T20:23:01.899Z,-2.50
2019-01-11T20:25:24.880Z,-2.50
2019-01-11T20:27:52.538Z,-2.40
2019-01-11T20:30:23.471Z,-2.40
2019-01-11T20:32:52.353Z,-2.30
2019-01-11T20:35:20.260Z,-2.30
2019-01-11T20:37:48.693Z,-2.30
2019-01-11T20:40:16.860Z,-2.30
2019-01-11T20:42:45.804Z,-2.30
2019-01-11T20:45:16.687Z,-2.30
2019-01-11T20:47:44.439Z,-2.30
2019-01-11T20:50:15.902Z,-2.30
2019-01-11T20:52:43.698Z,-2.30
2019-01-11T20:55:11.287Z,-2.30
2019-01-11T20:57:38.978Z,-2.30
2019-01-11T21:00:13.407Z,-2.30
2019-01-11T21:02:41.059Z,-2.30
2019-01-11T21:05:09.034Z,-2.30
2019-01-11T21:07:36.729Z,-2.20
2019-01-11T21:10:05.439Z,-2.20
2019-01-11T21:12:33.116Z,-2.20
2019-01-11T21:15:01.951Z,-2.20
2019-01-11T21:17:29.943Z,-2.10
2019-01-11T21:19:57.562Z,-2.10
2019-01-11T21:22:25.341Z,-2.00
2019-01-11T21:24:59.888Z,-2.00
2019-01-11T21:27:23.430Z,-2.00
2019-01-11T21:29:51.095Z,-1.90
2019-01-11T21:32:18.935Z,-1.90
2019-01-11T21:34:46.611Z,-1.90
2019-01-11T21:37:14.117Z,-1.70
2019-01-11T21:39:41.903Z,-1.70
2019-01-11T21:42:09.625Z,-1.60
2019-01-11T21:44:37.380Z,-1.60
2019-01-11T21:47:06.171Z,-1.50
2019-01-11T21:49:33.827Z,-1.50
2019-01-11T21:52:01.619Z,-1.40
2019-01-11T21:54:30.457Z,-1.40
2019-01-11T21:56:58.218Z,-1.20
2019-01-11T21:59:25.881Z,-1.30
2019-01-11T22:01:53.660Z,-1.30
2019-01-11T22:04:21.337Z,-1.20
2019-01-11T22:06:49.091Z,-1.20
2019-01-11T22:09:16.589Z,-1.10
2019-01-11T22:11:44.224Z,-1.10
2019-01-11T22:14:11.839Z,-1.10
2019-01-11T22:16:39.738Z,-1.00
2019-01-11T22:19:07.409Z,-1.10
2019-01-11T22:21:35.042Z,-1.10
2019-01-11T22:24:03.296Z,-1.00
2019-01-11T22:26:31.169Z,-1.00
2019-01-11T22:28:58.972Z,-1.00
2019-01-11T22:31:26.709Z,-1.00
2019-01-11T22:33:54.194Z,-1.00
2019-01-11T22:36:21.902Z,-1.00
2019-01-11T22:38:49.333Z,-1.00
2019-01-11T22:41:17.921Z,-1.00
2019-01-11T22:43:45.483Z,-1.00
2019-01-11T22:46:13.140Z,-0.90
2019-01-11T22:48:42.028Z,-0.90
2019-01-11T22:51:09.733Z,-0.90
2019-01-11T22:53:37.384Z,-0.90
2019-01-11T22:56:05.171Z,-0.80
2019-01-11T22:58:32.889Z,-0.80
2019-01-11T23:01:43.743Z,-0.80
2019-01-11T23:04:11.229Z,-0.80
2019-01-11T23:07:26.142Z,-0.80
2019-01-11T23:10:19.865Z,-0.80
2019-01-11T23:13:06.711Z,-0.80
2019-01-11T23:15:41.062Z,-0.80
2019-01-11T23:18:23.802Z,-0.70
2019-01-11T23:21:03.855Z,-0.70
2019-01-11T23:23:31.555Z,-0.70
2019-01-11T23:25:59.025Z,-0.70
2019-01-11T23:28:26.732Z,-0.60
2019-01-11T23:30:54.295Z,-0.60
2019-01-11T23:33:21.994Z,-0.60
2019-01-11T23:35:50.504Z,-0.60
2019-01-11T23:38:18.097Z,-0.60
2019-01-11T23:40:45.585Z,-0.60
2019-01-11T23:43:13.096Z,-0.50
2019-01-11T23:45:40.739Z,-0.50
2019-01-11T23:48:08.409Z,-0.50
2019-01-11T23:50:36.005Z,-0.50
2019-01-11T23:53:03.891Z,-0.50
2019-01-11T23:55:31.561Z,-0.50
2019-01-11T23:57:59.113Z,-0.50
